sensor_id;sensor_type;location;lat;lon;timestamp;pressure;altitude;pressure_sealevel;temperature;humidity
49567;BME280;35472;50.514;30.448;2022-09-09T00:02:23;100540.16;;;10.25;73.16
49567;BME280;35472;50.514;30.448;2022-09-09T00:04:59;100530.94;;;10.31;73.45
49567;BME280;35472;50.514;30.448;2022-09-09T00:07:49;100536.84;;;9.96;74.11
49567;BME280;35472;50.514;30.448;2022-09-09T00:10:25;100533.06;;;10.24;73.66
49567;BME280;35472;50.514;30.448;2022-09-09T00:18:36;100543.59;;;10.15;74.20
49567;BME280;35472;50.514;30.448;2022-09-09T00:21:13;100535.81;;;10.02;75.31
49567;BME280;35472;50.514;30.448;2022-09-09T00:23:54;100531.00;;;9.87;75.44
49567;BME280;35472;50.514;30.448;2022-09-09T00:26:39;100527.72;;;10.12;75.62
49567;BME280;35472;50.514;30.448;2022-09-09T00:31:37;100540.13;;;9.98;76.31
49567;BME280;35472;50.514;30.448;2022-09-09T00:34:13;100542.06;;;10.25;75.99
49567;BME280;35472;50.514;30.448;2022-09-09T00:36:41;100541.91;;;10.36;75.85
49567;BME280;35472;50.514;30.448;2022-09-09T00:39:32;100540.03;;;10.15;76.69
49567;BME280;35472;50.514;30.448;2022-09-09T00:42:04;100549.94;;;9.99;78.16
49567;BME280;35472;50.514;30.448;2022-09-09T00:44:37;100555.06;;;10.17;77.31
49567;BME280;35472;50.514;30.448;2022-09-09T00:47:23;100553.09;;;10.13;77.81
49567;BME280;35472;50.514;30.448;2022-09-09T00:50:01;100556.69;;;10.18;78.72
49567;BME280;35472;50.514;30.448;2022-09-09T00:52:34;100562.47;;;10.44;77.67
49567;BME280;35472;50.514;30.448;2022-09-09T00:55:09;100564.50;;;10.59;76.30
49567;BME280;35472;50.514;30.448;2022-09-09T00:57:40;100568.53;;;10.51;76.79
49567;BME280;35472;50.514;30.448;2022-09-09T01:00:35;100569.16;;;10.09;77.67
49567;BME280;35472;50.514;30.448;2022-09-09T01:05:53;100566.09;;;10.06;79.28
49567;BME280;35472;50.514;30.448;2022-09-09T01:11:04;100560.75;;;9.89;80.30
49567;BME280;35472;50.514;30.448;2022-09-09T01:13:34;100577.09;;;9.89;81.12
49567;BME280;35472;50.514;30.448;2022-09-09T01:16:08;100575.44;;;9.66;82.38
49567;BME280;35472;50.514;30.448;2022-09-09T01:18:44;100569.34;;;9.81;81.69
49567;BME280;35472;50.514;30.448;2022-09-09T01:26:43;100570.03;;;9.10;85.82
49567;BME280;35472;50.514;30.448;2022-09-09T01:29:19;100575.31;;;9.17;85.73
49567;BME280;35472;50.514;30.448;2022-09-09T01:31:53;100566.88;;;9.19;86.15
49567;BME280;35472;50.514;30.448;2022-09-09T01:34:20;100567.41;;;9.37;85.68
49567;BME280;35472;50.514;30.448;2022-09-09T01:36:56;100572.16;;;9.25;85.06
49567;BME280;35472;50.514;30.448;2022-09-09T01:39:29;100563.34;;;9.40;85.57
49567;BME280;35472;50.514;30.448;2022-09-09T01:42:02;100554.44;;;8.89;87.69
49567;BME280;35472;50.514;30.448;2022-09-09T01:44:29;100555.97;;;9.35;86.24
49567;BME280;35472;50.514;30.448;2022-09-09T01:46:55;100560.06;;;9.38;85.97
49567;BME280;35472;50.514;30.448;2022-09-09T01:49:21;100560.22;;;9.48;84.72
49567;BME280;35472;50.514;30.448;2022-09-09T01:51:53;100557.44;;;9.43;85.52
49567;BME280;35472;50.514;30.448;2022-09-09T01:54:29;100555.25;;;9.45;85.39
49567;BME280;35472;50.514;30.448;2022-09-09T02:07:47;100557.09;;;9.39;85.03
49567;BME280;35472;50.514;30.448;2022-09-09T02:10:45;100566.44;;;9.27;85.55
49567;BME280;35472;50.514;30.448;2022-09-09T02:13:19;100551.63;;;9.18;86.57
49567;BME280;35472;50.514;30.448;2022-09-09T02:18:35;100570.56;;;9.29;86.35
49567;BME280;35472;50.514;30.448;2022-09-09T02:21:05;100566.59;;;9.37;85.34
49567;BME280;35472;50.514;30.448;2022-09-09T02:23:33;100572.78;;;9.32;86.47
49567;BME280;35472;50.514;30.448;2022-09-09T02:26:03;100565.06;;;9.07;87.70
49567;BME280;35472;50.514;30.448;2022-09-09T02:28:31;100565.22;;;9.18;87.30
49567;BME280;35472;50.514;30.448;2022-09-09T02:30:58;100565.31;;;9.23;86.75
49567;BME280;35472;50.514;30.448;2022-09-09T02:33:35;100560.59;;;9.18;86.34
49567;BME280;35472;50.514;30.448;2022-09-09T02:36:03;100568.34;;;9.09;87.88
49567;BME280;35472;50.514;30.448;2022-09-09T02:38:35;100563.25;;;8.79;90.51
49567;BME280;35472;50.514;30.448;2022-09-09T02:41:08;100568.22;;;8.99;88.82
49567;BME280;35472;50.514;30.448;2022-09-09T02:43:34;100559.06;;;9.05;88.39
49567;BME280;35472;50.514;30.448;2022-09-09T02:49:06;100554.03;;;8.35;94.63
49567;BME280;35472;50.514;30.448;2022-09-09T02:54:33;100555.59;;;8.31;94.75
49567;BME280;35472;50.514;30.448;2022-09-09T02:57:12;100546.19;;;8.22;95.45
49567;BME280;35472;50.514;30.448;2022-09-09T02:59:40;100555.84;;;8.29;95.73
49567;BME280;35472;50.514;30.448;2022-09-09T03:02:07;100554.16;;;8.12;96.90
49567;BME280;35472;50.514;30.448;2022-09-09T03:04:35;100557.31;;;8.20;96.31
49567;BME280;35472;50.514;30.448;2022-09-09T03:07:00;100561.63;;;8.33;95.72
49567;BME280;35472;50.514;30.448;2022-09-09T03:09:26;100567.94;;;8.22;96.38
49567;BME280;35472;50.514;30.448;2022-09-09T03:11:52;100568.19;;;8.20;96.87
49567;BME280;35472;50.514;30.448;2022-09-09T03:14:20;100565.91;;;8.57;94.69
49567;BME280;35472;50.514;30.448;2022-09-09T03:16:50;100568.72;;;8.63;94.50
49567;BME280;35472;50.514;30.448;2022-09-09T03:19:16;100567.38;;;8.65;94.59
49567;BME280;35472;50.514;30.448;2022-09-09T03:21:41;100571.97;;;8.48;95.73
49567;BME280;35472;50.514;30.448;2022-09-09T03:24:07;100570.03;;;8.31;97.24
49567;BME280;35472;50.514;30.448;2022-09-09T03:26:36;100578.91;;;8.27;98.20
49567;BME280;35472;50.514;30.448;2022-09-09T03:29:03;100579.78;;;8.16;99.15
49567;BME280;35472;50.514;30.448;2022-09-09T03:31:34;100579.25;;;8.76;95.39
49567;BME280;35472;50.514;30.448;2022-09-09T03:34:02;100568.22;;;8.82;94.55
49567;BME280;35472;50.514;30.448;2022-09-09T03:36:30;100576.09;;;8.67;95.62
49567;BME280;35472;50.514;30.448;2022-09-09T03:38:55;100579.72;;;8.39;96.74
49567;BME280;35472;50.514;30.448;2022-09-09T03:41:22;100586.66;;;8.64;96.42
49567;BME280;35472;50.514;30.448;2022-09-09T03:43:53;100590.72;;;8.95;94.41
49567;BME280;35472;50.514;30.448;2022-09-09T03:46:21;100587.66;;;8.91;94.83
49567;BME280;35472;50.514;30.448;2022-09-09T03:48:47;100589.25;;;8.87;94.96
49567;BME280;35472;50.514;30.448;2022-09-09T03:51:13;100595.25;;;8.89;95.04
49567;BME280;35472;50.514;30.448;2022-09-09T03:53:40;100587.31;;;8.54;96.38
49567;BME280;35472;50.514;30.448;2022-09-09T03:56:06;100588.28;;;8.19;98.64
49567;BME280;35472;50.514;30.448;2022-09-09T03:58:33;100590.41;;;8.17;99.16
49567;BME280;35472;50.514;30.448;2022-09-09T04:01:06;100589.88;;;8.60;97.15
49567;BME280;35472;50.514;30.448;2022-09-09T04:03:34;100580.25;;;8.70;96.18
49567;BME280;35472;50.514;30.448;2022-09-09T04:06:02;100584.78;;;8.81;95.41
49567;BME280;35472;50.514;30.448;2022-09-09T04:08:30;100578.50;;;8.97;94.41
49567;BME280;35472;50.514;30.448;2022-09-09T04:10:58;100582.31;;;8.96;94.58
49567;BME280;35472;50.514;30.448;2022-09-09T04:13:25;100576.03;;;9.90;88.87
49567;BME280;35472;50.514;30.448;2022-09-09T04:15:55;100586.94;;;10.66;83.50
49567;BME280;35472;50.514;30.448;2022-09-09T04:18:22;100584.44;;;10.32;84.27
49567;BME280;35472;50.514;30.448;2022-09-09T04:20:48;100593.66;;;9.44;88.01
49567;BME280;35472;50.514;30.448;2022-09-09T04:23:17;100596.66;;;9.64;88.73
49567;BME280;35472;50.514;30.448;2022-09-09T04:25:48;100603.47;;;9.83;87.27
49567;BME280;35472;50.514;30.448;2022-09-09T04:28:15;100608.06;;;9.05;90.27
49567;BME280;35472;50.514;30.448;2022-09-09T04:30:42;100609.09;;;9.38;88.89
49567;BME280;35472;50.514;30.448;2022-09-09T04:33:08;100612.44;;;9.62;87.49
49567;BME280;35472;50.514;30.448;2022-09-09T04:35:35;100610.34;;;10.13;85.75
49567;BME280;35472;50.514;30.448;2022-09-09T04:38:00;100614.81;;;11.00;77.88
49567;BME280;35472;50.514;30.448;2022-09-09T04:40:29;100614.53;;;11.01;80.58
49567;BME280;35472;50.514;30.448;2022-09-09T04:42:57;100619.97;;;11.28;77.72
49567;BME280;35472;50.514;30.448;2022-09-09T04:45:23;100619.91;;;12.18;72.78
49567;BME280;35472;50.514;30.448;2022-09-09T04:47:49;100623.38;;;13.17;68.08
49567;BME280;35472;50.514;30.448;2022-09-09T04:50:14;100635.34;;;13.82;65.75
49567;BME280;35472;50.514;30.448;2022-09-09T04:52:45;100627.19;;;13.57;64.27
49567;BME280;35472;50.514;30.448;2022-09-09T04:55:10;100617.97;;;15.64;58.87
49567;BME280;35472;50.514;30.448;2022-09-09T04:57:39;100622.38;;;15.89;55.88
49567;BME280;35472;50.514;30.448;2022-09-09T05:00:05;100627.38;;;16.68;54.06
49567;BME280;35472;50.514;30.448;2022-09-09T05:02:37;100630.09;;;16.92;52.35
49567;BME280;35472;50.514;30.448;2022-09-09T05:05:03;100628.44;;;19.02;48.44
49567;BME280;35472;50.514;30.448;2022-09-09T05:07:29;100632.91;;;18.12;48.34
49567;BME280;35472;50.514;30.448;2022-09-09T05:09:57;100619.88;;;18.90;47.53
49567;BME280;35472;50.514;30.448;2022-09-09T05:12:23;100613.22;;;19.13;45.21
49567;BME280;35472;50.514;30.448;2022-09-09T05:14:53;100616.91;;;19.85;43.52
49567;BME280;35472;50.514;30.448;2022-09-09T05:17:19;100614.25;;;19.48;43.56
49567;BME280;35472;50.514;30.448;2022-09-09T05:19:44;100609.88;;;18.80;45.50
49567;BME280;35472;50.514;30.448;2022-09-09T05:22:10;100605.53;;;18.15;45.89
49567;BME280;35472;50.514;30.448;2022-09-09T05:24:42;100603.88;;;17.87;47.13
49567;BME280;35472;50.514;30.448;2022-09-09T05:27:08;100594.88;;;19.17;43.64
49567;BME280;35472;50.514;30.448;2022-09-09T05:29:37;100591.78;;;20.21;42.31
49567;BME280;35472;50.514;30.448;2022-09-09T05:32:04;100604.03;;;19.04;43.56
49567;BME280;35472;50.514;30.448;2022-09-09T05:34:30;100594.06;;;17.94;45.66
49567;BME280;35472;50.514;30.448;2022-09-09T05:36:56;100598.88;;;16.96;49.42
49567;BME280;35472;50.514;30.448;2022-09-09T05:39:22;100589.97;;;18.69;45.05
49567;BME280;35472;50.514;30.448;2022-09-09T05:41:48;100595.31;;;20.04;42.08
49567;BME280;35472;50.514;30.448;2022-09-09T05:44:13;100607.69;;;18.55;44.46
49567;BME280;35472;50.514;30.448;2022-09-09T05:46:39;100606.91;;;19.66;43.63
49567;BME280;35472;50.514;30.448;2022-09-09T05:49:05;100602.38;;;18.94;44.04
49567;BME280;35472;50.514;30.448;2022-09-09T05:51:32;100617.59;;;20.47;39.91
49567;BME280;35472;50.514;30.448;2022-09-09T05:54:01;100607.75;;;20.32;40.17
49567;BME280;35472;50.514;30.448;2022-09-09T05:56:30;100604.41;;;21.69;38.92
49567;BME280;35472;50.514;30.448;2022-09-09T05:58:58;100603.31;;;22.29;37.01
49567;BME280;35472;50.514;30.448;2022-09-09T06:01:30;100604.81;;;22.68;36.70
49567;BME280;35472;50.514;30.448;2022-09-09T06:03:56;100606.81;;;20.54;39.56
49567;BME280;35472;50.514;30.448;2022-09-09T06:06:25;100617.06;;;19.26;42.08
49567;BME280;35472;50.514;30.448;2022-09-09T06:08:57;100619.09;;;20.05;40.96
49567;BME280;35472;50.514;30.448;2022-09-09T06:11:29;100623.81;;;19.65;41.01
49567;BME280;35472;50.514;30.448;2022-09-09T06:14:00;100614.63;;;19.24;42.55
49567;BME280;35472;50.514;30.448;2022-09-09T06:16:28;100625.88;;;19.59;42.49
49567;BME280;35472;50.514;30.448;2022-09-09T06:18:55;100628.56;;;17.64;44.94
49567;BME280;35472;50.514;30.448;2022-09-09T06:21:25;100631.88;;;19.83;41.71
49567;BME280;35472;50.514;30.448;2022-09-09T06:23:51;100618.03;;;21.27;38.95
49567;BME280;35472;50.514;30.448;2022-09-09T06:26:21;100628.41;;;21.74;37.86
49567;BME280;35472;50.514;30.448;2022-09-09T06:28:50;100632.88;;;21.57;38.64
49567;BME280;35472;50.514;30.448;2022-09-09T06:31:17;100632.63;;;22.68;36.46
49567;BME280;35472;50.514;30.448;2022-09-09T06:33:43;100620.19;;;21.13;38.67
49567;BME280;35472;50.514;30.448;2022-09-09T06:36:13;100634.19;;;21.60;37.82
49567;BME280;35472;50.514;30.448;2022-09-09T06:38:41;100632.25;;;21.90;36.78
49567;BME280;35472;50.514;30.448;2022-09-09T06:41:09;100629.09;;;21.62;37.40
49567;BME280;35472;50.514;30.448;2022-09-09T06:43:38;100634.31;;;22.10;36.58
49567;BME280;35472;50.514;30.448;2022-09-09T06:46:09;100620.22;;;20.78;38.15
49567;BME280;35472;50.514;30.448;2022-09-09T06:48:35;100615.16;;;20.46;39.46
49567;BME280;35472;50.514;30.448;2022-09-09T06:53:27;100628.75;;;21.72;37.07
49567;BME280;35472;50.514;30.448;2022-09-09T06:55:53;100624.19;;;22.35;35.48
49567;BME280;35472;50.514;30.448;2022-09-09T06:58:20;100620.34;;;21.42;37.13
49567;BME280;35472;50.514;30.448;2022-09-09T07:00:47;100621.97;;;21.26;37.89
49567;BME280;35472;50.514;30.448;2022-09-09T07:03:13;100629.38;;;20.87;38.56
49567;BME280;35472;50.514;30.448;2022-09-09T07:05:39;100649.75;;;20.26;38.58
49567;BME280;35472;50.514;30.448;2022-09-09T07:08:04;100642.78;;;20.28;39.47
49567;BME280;35472;50.514;30.448;2022-09-09T07:10:30;100641.25;;;20.79;37.71
49567;BME280;35472;50.514;30.448;2022-09-09T07:12:56;100630.97;;;20.71;37.68
49567;BME280;35472;50.514;30.448;2022-09-09T07:15:23;100635.66;;;21.23;37.96
49567;BME280;35472;50.514;30.448;2022-09-09T07:17:50;100635.72;;;20.88;38.60
49567;BME280;35472;50.514;30.448;2022-09-09T07:20:16;100640.41;;;19.11;41.49
49567;BME280;35472;50.514;30.448;2022-09-09T07:22:41;100639.88;;;20.42;39.68
49567;BME280;35472;50.514;30.448;2022-09-09T07:25:08;100636.84;;;21.30;37.89
49567;BME280;35472;50.514;30.448;2022-09-09T07:27:35;100641.41;;;20.74;38.69
49567;BME280;35472;50.514;30.448;2022-09-09T07:30:00;100639.53;;;20.35;39.10
49567;BME280;35472;50.514;30.448;2022-09-09T07:32:28;100631.88;;;20.41;38.46
49567;BME280;35472;50.514;30.448;2022-09-09T07:34:56;100629.97;;;18.72;40.48
49567;BME280;35472;50.514;30.448;2022-09-09T07:37:23;100629.84;;;17.72;43.03
49567;BME280;35472;50.514;30.448;2022-09-09T07:39:50;100643.13;;;18.39;41.26
49567;BME280;35472;50.514;30.448;2022-09-09T07:42:17;100636.78;;;18.25;41.90
49567;BME280;35472;50.514;30.448;2022-09-09T07:44:42;100629.72;;;17.77;43.28
49567;BME280;35472;50.514;30.448;2022-09-09T07:47:11;100632.66;;;17.67;44.00
49567;BME280;35472;50.514;30.448;2022-09-09T07:49:46;100632.84;;;17.43;44.00
49567;BME280;35472;50.514;30.448;2022-09-09T07:52:14;100628.34;;;17.14;44.35
49567;BME280;35472;50.514;30.448;2022-09-09T07:54:42;100624.88;;;16.90;44.47
49567;BME280;35472;50.514;30.448;2022-09-09T07:57:09;100632.69;;;17.34;44.31
49567;BME280;35472;50.514;30.448;2022-09-09T07:59:36;100644.78;;;16.87;44.41
49567;BME280;35472;50.514;30.448;2022-09-09T08:02:02;100643.44;;;16.84;44.05
49567;BME280;35472;50.514;30.448;2022-09-09T08:04:30;100633.63;;;17.30;42.35
49567;BME280;35472;50.514;30.448;2022-09-09T08:06:58;100635.88;;;16.33;44.96
49567;BME280;35472;50.514;30.448;2022-09-09T08:09:26;100627.06;;;16.74;44.75
49567;BME280;35472;50.514;30.448;2022-09-09T08:11:58;100631.94;;;17.48;43.34
49567;BME280;35472;50.514;30.448;2022-09-09T08:14:24;100635.75;;;17.33;43.63
49567;BME280;35472;50.514;30.448;2022-09-09T08:16:50;100619.09;;;16.73;44.22
49567;BME280;35472;50.514;30.448;2022-09-09T08:19:19;100638.06;;;16.74;44.07
49567;BME280;35472;50.514;30.448;2022-09-09T08:21:45;100612.75;;;16.72;44.12
49567;BME280;35472;50.514;30.448;2022-09-09T08:24:12;100619.50;;;16.42;44.82
49567;BME280;35472;50.514;30.448;2022-09-09T08:26:43;100623.75;;;16.91;44.09
49567;BME280;35472;50.514;30.448;2022-09-09T08:29:11;100624.75;;;16.62;43.98
49567;BME280;35472;50.514;30.448;2022-09-09T08:31:55;100609.59;;;16.60;44.02
49567;BME280;35472;50.514;30.448;2022-09-09T08:34:23;100615.31;;;17.20;43.53
49567;BME280;35472;50.514;30.448;2022-09-09T08:36:50;100624.75;;;16.81;42.88
49567;BME280;35472;50.514;30.448;2022-09-09T08:39:20;100613.72;;;17.00;42.12
49567;BME280;35472;50.514;30.448;2022-09-09T08:45:12;100613.00;;;17.08;42.77
49567;BME280;35472;50.514;30.448;2022-09-09T08:50:28;100598.97;;;16.91;43.39
49567;BME280;35472;50.514;30.448;2022-09-09T08:55:57;100602.91;;;17.50;42.01
49567;BME280;35472;50.514;30.448;2022-09-09T08:58:49;100609.56;;;16.84;41.96
49567;BME280;35472;50.514;30.448;2022-09-09T09:09:16;100597.63;;;17.54;40.31
49567;BME280;35472;50.514;30.448;2022-09-09T09:12:10;100591.25;;;17.53;40.29
49567;BME280;35472;50.514;30.448;2022-09-09T09:14:37;100583.47;;;16.95;38.86
49567;BME280;35472;50.514;30.448;2022-09-09T09:17:10;100575.66;;;17.16;38.82
49567;BME280;35472;50.514;30.448;2022-09-09T09:19:39;100581.59;;;17.83;38.16
49567;BME280;35472;50.514;30.448;2022-09-09T09:22:15;100587.81;;;17.15;39.38
49567;BME280;35472;50.514;30.448;2022-09-09T09:25:11;100574.09;;;17.56;38.86
49567;BME280;35472;50.514;30.448;2022-09-09T09:28:17;100574.34;;;17.87;38.73
49567;BME280;35472;50.514;30.448;2022-09-09T09:30:50;100564.00;;;17.65;39.05
49567;BME280;35472;50.514;30.448;2022-09-09T09:33:26;100573.59;;;17.68;38.74
49567;BME280;35472;50.514;30.448;2022-09-09T09:35:53;100574.56;;;17.91;38.90
49567;BME280;35472;50.514;30.448;2022-09-09T09:38:23;100581.19;;;18.04;38.29
49567;BME280;35472;50.514;30.448;2022-09-09T09:40:57;100580.44;;;18.26;38.43
49567;BME280;35472;50.514;30.448;2022-09-09T09:43:26;100583.13;;;18.03;38.22
49567;BME280;35472;50.514;30.448;2022-09-09T09:45:52;100593.06;;;17.30;40.04
49567;BME280;35472;50.514;30.448;2022-09-09T09:48:19;100578.69;;;17.47;39.85
49567;BME280;35472;50.514;30.448;2022-09-09T09:50:49;100566.78;;;17.79;39.86
49567;BME280;35472;50.514;30.448;2022-09-09T09:53:25;100589.34;;;17.07;41.19
49567;BME280;35472;50.514;30.448;2022-09-09T09:55:58;100575.59;;;17.35;40.74
49567;BME280;35472;50.514;30.448;2022-09-09T09:58:26;100599.59;;;17.81;39.05
49567;BME280;35472;50.514;30.448;2022-09-09T10:00:53;100588.84;;;17.19;39.83
49567;BME280;35472;50.514;30.448;2022-09-09T10:03:33;100591.38;;;17.15;40.11
49567;BME280;35472;50.514;30.448;2022-09-09T10:06:05;100585.22;;;17.51;39.59
49567;BME280;35472;50.514;30.448;2022-09-09T10:08:34;100581.94;;;16.89;40.02
49567;BME280;35472;50.514;30.448;2022-09-09T10:13:56;100579.25;;;17.77;38.84
49567;BME280;35472;50.514;30.448;2022-09-09T10:16:33;100584.06;;;17.85;38.75
49567;BME280;35472;50.514;30.448;2022-09-09T10:19:13;100590.50;;;17.80;37.86
49567;BME280;35472;50.514;30.448;2022-09-09T10:30:05;100573.88;;;18.35;35.63
49567;BME280;35472;50.514;30.448;2022-09-09T10:32:46;100580.38;;;17.89;36.62
49567;BME280;35472;50.514;30.448;2022-09-09T10:36:02;100575.16;;;18.52;35.20
49567;BME280;35472;50.514;30.448;2022-09-09T10:38:31;100569.06;;;18.77;34.44
49567;BME280;35472;50.514;30.448;2022-09-09T10:41:18;100582.59;;;18.29;34.63
49567;BME280;35472;50.514;30.448;2022-09-09T10:46:44;100598.75;;;18.21;34.16
49567;BME280;35472;50.514;30.448;2022-09-09T10:52:09;100583.19;;;18.39;34.45
49567;BME280;35472;50.514;30.448;2022-09-09T10:55:07;100573.69;;;17.35;36.58
49567;BME280;35472;50.514;30.448;2022-09-09T10:57:42;100572.09;;;17.76;36.21
49567;BME280;35472;50.514;30.448;2022-09-09T11:00:17;100580.38;;;18.03;36.48
49567;BME280;35472;50.514;30.448;2022-09-09T11:02:43;100566.94;;;18.24;36.00
49567;BME280;35472;50.514;30.448;2022-09-09T11:05:19;100572.84;;;18.31;35.51
49567;BME280;35472;50.514;30.448;2022-09-09T11:07:55;100563.63;;;18.36;35.44
49567;BME280;35472;50.514;30.448;2022-09-09T11:10:39;100570.63;;;18.33;35.26
49567;BME280;35472;50.514;30.448;2022-09-09T11:13:14;100560.41;;;18.06;35.51
49567;BME280;35472;50.514;30.448;2022-09-09T11:15:49;100573.22;;;17.88;36.35
49567;BME280;35472;50.514;30.448;2022-09-09T11:18:21;100568.31;;;17.99;36.75
49567;BME280;35472;50.514;30.448;2022-09-09T11:20:52;100583.84;;;17.81;36.92
49567;BME280;35472;50.514;30.448;2022-09-09T11:23:30;100570.78;;;18.37;36.16
49567;BME280;35472;50.514;30.448;2022-09-09T11:26:01;100560.41;;;18.06;36.46
49567;BME280;35472;50.514;30.448;2022-09-09T11:28:38;100562.19;;;18.02;36.77
49567;BME280;35472;50.514;30.448;2022-09-09T11:31:40;100570.97;;;18.04;37.13
49567;BME280;35472;50.514;30.448;2022-09-09T11:37:23;100551.69;;;18.63;36.29
49567;BME280;35472;50.514;30.448;2022-09-09T11:42:42;100548.16;;;18.48;36.96
49567;BME280;35472;50.514;30.448;2022-09-09T11:45:22;100549.66;;;18.32;37.35
49567;BME280;35472;50.514;30.448;2022-09-09T11:53:26;100530.75;;;19.15;35.94
49567;BME280;35472;50.514;30.448;2022-09-09T11:56:12;100539.84;;;18.12;37.05
49567;BME280;35472;50.514;30.448;2022-09-09T11:58:53;100528.81;;;18.12;37.21
49567;BME280;35472;50.514;30.448;2022-09-09T12:01:34;100528.00;;;18.48;36.74
49567;BME280;35472;50.514;30.448;2022-09-09T12:07:00;100546.91;;;18.18;36.26
49567;BME280;35472;50.514;30.448;2022-09-09T12:09:38;100528.19;;;18.52;35.49
49567;BME280;35472;50.514;30.448;2022-09-09T12:19:39;100530.09;;;17.79;36.75
49567;BME280;35472;50.514;30.448;2022-09-09T12:22:15;100525.34;;;18.07;36.53
49567;BME280;35472;50.514;30.448;2022-09-09T12:25:02;100528.75;;;18.04;36.45
49567;BME280;35472;50.514;30.448;2022-09-09T12:27:38;100529.44;;;18.45;35.77
49567;BME280;35472;50.514;30.448;2022-09-09T12:30:15;100528.34;;;17.83;36.64
49567;BME280;35472;50.514;30.448;2022-09-09T12:32:41;100543.53;;;18.08;36.07
49567;BME280;35472;50.514;30.448;2022-09-09T12:35:13;100530.53;;;18.22;35.50
49567;BME280;35472;50.514;30.448;2022-09-09T12:37:51;100547.56;;;17.88;35.55
49567;BME280;35472;50.514;30.448;2022-09-09T12:40:30;100544.00;;;17.74;35.77
49567;BME280;35472;50.514;30.448;2022-09-09T12:42:57;100545.00;;;17.91;35.64
49567;BME280;35472;50.514;30.448;2022-09-09T12:45:28;100539.25;;;18.15;35.01
49567;BME280;35472;50.514;30.448;2022-09-09T12:48:00;100529.88;;;17.89;35.83
49567;BME280;35472;50.514;30.448;2022-09-09T12:50:33;100538.69;;;17.91;36.13
49567;BME280;35472;50.514;30.448;2022-09-09T12:53:07;100539.50;;;17.78;35.74
49567;BME280;35472;50.514;30.448;2022-09-09T12:55:36;100544.16;;;17.63;35.87
49567;BME280;35472;50.514;30.448;2022-09-09T12:58:03;100538.44;;;17.46;36.37
49567;BME280;35472;50.514;30.448;2022-09-09T13:00:32;100543.75;;;17.42;36.65
49567;BME280;35472;50.514;30.448;2022-09-09T13:02:59;100531.28;;;17.59;36.45
49567;BME280;35472;50.514;30.448;2022-09-09T13:05:37;100541.50;;;18.13;35.96
49567;BME280;35472;50.514;30.448;2022-09-09T13:08:09;100541.81;;;17.43;36.54
49567;BME280;35472;50.514;30.448;2022-09-09T13:10:40;100529.56;;;17.49;36.99
49567;BME280;35472;50.514;30.448;2022-09-09T13:13:15;100534.63;;;17.28;37.00
49567;BME280;35472;50.514;30.448;2022-09-09T13:15:55;100544.16;;;17.50;36.82
49567;BME280;35472;50.514;30.448;2022-09-09T13:18:23;100540.28;;;17.64;36.48
49567;BME280;35472;50.514;30.448;2022-09-09T13:20:50;100540.47;;;17.27;36.98
49567;BME280;35472;50.514;30.448;2022-09-09T13:23:18;100541.66;;;17.07;37.56
49567;BME280;35472;50.514;30.448;2022-09-09T13:28:48;100529.78;;;17.66;36.46
49567;BME280;35472;50.514;30.448;2022-09-09T13:31:24;100535.69;;;17.32;36.88
49567;BME280;35472;50.514;30.448;2022-09-09T13:33:52;100537.00;;;17.35;36.74
49567;BME280;35472;50.514;30.448;2022-09-09T13:36:28;100540.84;;;17.06;36.96
49567;BME280;35472;50.514;30.448;2022-09-09T13:38:56;100536.59;;;17.28;36.91
49567;BME280;35472;50.514;30.448;2022-09-09T13:41:43;100551.72;;;17.44;36.63
49567;BME280;35472;50.514;30.448;2022-09-09T13:44:28;100538.59;;;17.22;36.87
49567;BME280;35472;50.514;30.448;2022-09-09T13:49:39;100547.28;;;17.15;37.43
49567;BME280;35472;50.514;30.448;2022-09-09T13:52:08;100543.53;;;17.39;37.05
49567;BME280;35472;50.514;30.448;2022-09-09T13:54:34;100542.88;;;17.01;37.48
49567;BME280;35472;50.514;30.448;2022-09-09T13:57:00;100544.00;;;17.00;38.06
49567;BME280;35472;50.514;30.448;2022-09-09T13:59:26;100545.28;;;16.70;38.30
49567;BME280;35472;50.514;30.448;2022-09-09T14:01:52;100540.50;;;16.94;37.81
49567;BME280;35472;50.514;30.448;2022-09-09T14:04:18;100530.78;;;16.83;37.36
49567;BME280;35472;50.514;30.448;2022-09-09T14:06:45;100532.34;;;17.03;37.44
49567;BME280;35472;50.514;30.448;2022-09-09T14:09:13;100524.03;;;16.75;37.95
49567;BME280;35472;50.514;30.448;2022-09-09T14:11:40;100530.53;;;16.79;37.86
49567;BME280;35472;50.514;30.448;2022-09-09T14:14:05;100531.59;;;16.83;38.02
49567;BME280;35472;50.514;30.448;2022-09-09T14:16:31;100547.31;;;16.83;37.81
49567;BME280;35472;50.514;30.448;2022-09-09T14:18:56;100542.69;;;16.78;37.96
49567;BME280;35472;50.514;30.448;2022-09-09T14:21:23;100528.66;;;16.94;37.93
49567;BME280;35472;50.514;30.448;2022-09-09T14:23:48;100527.28;;;16.77;38.40
49567;BME280;35472;50.514;30.448;2022-09-09T14:26:14;100523.72;;;16.77;38.40
49567;BME280;35472;50.514;30.448;2022-09-09T14:28:39;100526.00;;;16.70;38.46
49567;BME280;35472;50.514;30.448;2022-09-09T14:31:06;100515.44;;;16.77;38.52
49567;BME280;35472;50.514;30.448;2022-09-09T14:33:31;100510.53;;;16.74;38.71
49567;BME280;35472;50.514;30.448;2022-09-09T14:35:58;100501.50;;;16.87;38.37
49567;BME280;35472;50.514;30.448;2022-09-09T14:38:24;100511.69;;;16.86;38.33
49567;BME280;35472;50.514;30.448;2022-09-09T14:40:49;100512.69;;;16.58;38.75
49567;BME280;35472;50.514;30.448;2022-09-09T14:43:15;100509.22;;;16.85;38.51
49567;BME280;35472;50.514;30.448;2022-09-09T14:45:40;100508.94;;;16.68;38.80